CYZT

Port Hardy Airport

Port Hardy, , Canada
METAR CYZT 172100Z 27008KT 240V320 20SM FEW006 SCT018 BKN030 04/01 A2958 RMK SF1CU2SC4 SLP020
Observed Flight Rules
Feb-17 @ 21:00 UTC (33 minutes ago) Marginal Visual Flight Rules
Wind Visibility Clouds
270° at 8 knots 20 miles
  • Few at 600' AGL
  • Scattered at 1,800' AGL
  • Broken at 3,000' AGL
Temperatures Readings
Current 4°C / 39°F
Dewpoint 1°C / 34°F
Humidity 81%
Altimeter 29.58" Hg
Pressure 1002 hPa
Elevation 22
METAR CYZT 172100Z 27008KT 240V320 20SM FEW006 SCT018 BKN030 04/01 A2958 RMK SF1CU2SC4 SLP020
Observed Flight Rules
Feb-17 @ 21:00 UTC
(33 minutes ago)
MVFR
Wind Visibility
270° at 8 knots 20 miles
Clouds
  • Few at 600' AGL
  • Scattered at 1,800' AGL
  • Broken at 3,000' AGL
Temperature Dewpoint
4°C / 39°F 1°C / 34°F
Humidity Altimeter Pressure
81% 29.58" Hg 1002 hPa